NFFN/NAN METAR and TAF weather

Enter ICAO airport designator
Station Type Date Time Source
NFFN METAR 2019/02/21 16:00 UTC NOAA

NFFN 211600Z 06004KT 9999 FEW028 SCT048 25/24 Q1008 NOSIG


Station Type Date Time Source
NFFN Decoded METAR 2019/02/21 16:00 UTC NOAA

Nandi, Fiji (NFFN) 17-45S 177-27E 18M
Feb 21, 2019 - 11:00 AM EST / 2019.02.21 1600 UTC
Wind: from the ENE (060 degrees) at 5 MPH (4 KT):0
Visibility: greater than 7 mile(s):0
Sky conditions: partly cloudy
Temperature: 77 F (25 C)
Dew Point: 75 F (24 C)
Relative Humidity: 94%
Pressure (altimeter): 29.77 in. Hg (1008 hPa)
ob: NFFN 211600Z 06004KT 9999 FEW028 SCT048 25/24 Q1008 NOSIG
cycle: 16

Station Type Date Time Source
NFFN TAF 2019/02/21 12:15 UTC NOAA

TAF NFFN 211106Z 2112/2212 10006KT 9999 SCT028 SCT048
BECMG 2122/2124 26010KT PROB40
TEMPO 2200/2208 3000 TSRA BKN015 FEW018CB
BECMG 2204/2206 09007KT


Example: see airport list